Time;durP1;ratioP1;P1;durP2;ratioP2;P2;SDS_P1;SDS_P2;PMS_P1;PMS_P2;Temp;Humidity;BMP_temperature;BMP_pressure;BME280_temperature;BME280_humidity;BME280_pressure;Samples;Min_cycle;Max_cycle;Signal;HPM_P1;HPM_P2
2023/06/22 00:01:18;;;;;;;5.77;5.27;;;23.30;58.80;;;;;;4977317;28;20441;-69
2023/06/22 00:03:44;;;;;;;5.43;4.93;;;23.30;58.90;;;;;;4979233;28;20460;-70
2023/06/22 00:06:10;;;;;;;5.97;5.10;;;23.20;59.00;;;;;;4978815;28;20459;-68
2023/06/22 00:08:35;;;;;;;5.67;5.17;;;23.30;59.00;;;;;;4978034;28;20267;-69
2023/06/22 00:11:01;;;;;;;5.27;4.47;;;23.20;59.10;;;;;;4978073;28;20200;-70
2023/06/22 00:13:26;;;;;;;9.27;5.90;;;23.20;59.30;;;;;;4978841;28;20203;-70
2023/06/22 00:15:52;;;;;;;6.03;5.43;;;23.20;59.50;;;;;;4975974;28;20215;-71
2023/06/22 00:18:17;;;;;;;6.13;5.53;;;23.20;59.60;;;;;;4977464;28;20208;-70
2023/06/22 00:20:45;;;;;;;5.53;5.03;;;23.10;59.80;;;;;;4978883;28;20626;-70
2023/06/22 00:23:11;;;;;;;5.67;4.97;;;23.00;59.80;;;;;;4980464;28;20652;-70
2023/06/22 00:25:40;;;;;;;7.53;5.70;;;23.00;60.10;;;;;;4978275;28;20462;-69
2023/06/22 00:28:07;;;;;;;5.90;5.03;;;23.00;60.40;;;;;;4978268;28;20231;-70
2023/06/22 00:30:34;;;;;;;6.17;5.57;;;23.00;60.40;;;;;;4975565;28;20436;-71
2023/06/22 00:33:00;;;;;;;5.87;4.70;;;23.00;60.70;;;;;;4977962;28;20435;-70
2023/06/22 00:35:29;;;;;;;5.17;4.67;;;22.90;60.70;;;;;;4977843;28;20459;-70
2023/06/22 00:38:03;;;;;;;6.43;5.33;;;22.90;60.80;;;;;;4978063;28;20428;-69
2023/06/22 00:40:33;;;;;;;7.47;5.13;;;22.90;61.10;;;;;;4976580;28;20464;-70
2023/06/22 00:42:59;;;;;;;5.70;5.10;;;22.90;61.30;;;;;;4978023;28;20467;-70
2023/06/22 00:45:26;;;;;;;4.57;4.10;;;22.90;61.30;;;;;;4976312;28;20677;-68
2023/06/22 00:47:52;;;;;;;5.67;4.73;;;22.90;61.50;;;;;;4978286;28;20490;-70
2023/06/22 00:50:22;;;;;;;6.53;5.90;;;22.90;61.60;;;;;;4977052;28;20901;-70
2023/06/22 00:52:52;;;;;;;5.13;4.63;;;22.90;61.60;;;;;;4977744;28;20435;-71
2023/06/22 00:55:20;;;;;;;5.07;4.57;;;22.80;61.50;;;;;;4976746;28;20665;-70
2023/06/22 00:57:47;;;;;;;5.83;4.60;;;22.80;61.80;;;;;;4977740;28;20431;-70
2023/06/22 01:00:19;;;;;;;4.90;4.40;;;22.80;62.10;;;;;;4976488;28;20534;-71
2023/06/22 01:02:45;;;;;;;5.23;4.73;;;22.80;62.10;;;;;;4977504;28;20527;-70
2023/06/22 01:05:13;;;;;;;6.00;4.90;;;22.80;62.30;;;;;;4976947;28;20707;-70
2023/06/22 01:07:56;;;;;;;5.43;4.93;;;22.80;62.30;;;;;;4977444;28;20548;-71
2023/06/22 01:10:30;;;;;;;5.50;5.00;;;22.80;62.40;;;;;;4958040;28;20453;-70
2023/06/22 01:13:01;;;;;;;5.67;4.43;;;22.70;62.40;;;;;;4968604;28;20885;-69
2023/06/22 01:15:43;;;;;;;5.70;5.00;;;22.70;62.60;;;;;;4976047;28;20435;-70
2023/06/22 01:18:09;;;;;;;4.90;4.43;;;22.70;62.70;;;;;;4977579;28;20435;-70
2023/06/22 01:20:36;;;;;;;4.87;4.47;;;22.70;62.90;;;;;;4975433;28;20448;-70
2023/06/22 01:23:27;;;;;;;5.63;4.77;;;22.60;63.10;;;;;;4977499;28;20755;-69
2023/06/22 01:26:21;;;;;;;5.23;4.50;;;22.70;63.20;;;;;;4977102;28;20472;-69
2023/06/22 01:28:49;;;;;;;7.60;5.07;;;22.70;63.30;;;;;;4977774;28;20412;-69
2023/06/22 01:31:26;;;;;;;5.73;5.00;;;22.70;63.50;;;;;;4976288;28;20412;-70
2023/06/22 01:34:02;;;;;;;6.00;5.50;;;22.70;63.70;;;;;;4975986;28;20419;-70
2023/06/22 01:36:30;;;;;;;5.43;4.93;;;22.60;63.80;;;;;;4975661;28;20465;-70
2023/06/22 01:38:57;;;;;;;6.00;4.63;;;22.60;63.90;;;;;;4976616;28;20429;-70
2023/06/22 01:41:28;;;;;;;4.93;4.43;;;22.60;64.00;;;;;;4976177;28;20419;-69
2023/06/22 01:43:55;;;;;;;5.17;4.67;;;22.60;64.00;;;;;;4977042;28;20514;-70
2023/06/22 01:46:22;;;;;;;5.50;5.00;;;22.60;64.00;;;;;;4975489;28;20424;-70
2023/06/22 01:48:48;;;;;;;5.00;4.50;;;22.60;64.10;;;;;;4975000;28;20423;-69
2023/06/22 01:51:14;;;;;;;5.50;5.00;;;22.50;64.10;;;;;;4976778;28;20432;-70
2023/06/22 01:53:40;;;;;;;5.20;4.60;;;22.60;64.10;;;;;;4976433;28;20716;-69
2023/06/22 01:56:06;;;;;;;7.63;4.80;;;22.60;64.30;;;;;;4976877;28;20431;-69
2023/06/22 01:58:33;;;;;;;5.70;5.10;;;22.50;64.30;;;;;;4976449;28;20422;-70
2023/06/22 02:01:13;;;;;;;4.80;4.40;;;22.50;64.40;;;;;;4974556;28;20748;-69
2023/06/22 02:03:48;;;;;;;8.17;5.27;;;22.50;64.50;;;;;;4976448;28;20459;-70
2023/06/22 02:06:21;;;;;;;7.10;5.50;;;22.50;64.20;;;;;;4976614;28;20404;-70
2023/06/22 02:08:51;;;;;;;4.90;4.40;;;22.50;64.00;;;;;;4975843;28;20430;-70
2023/06/22 02:11:20;;;;;;;4.40;4.00;;;22.60;64.80;;;;;;4976396;28;20440;-70
2023/06/22 02:13:46;;;;;;;5.30;4.50;;;22.50;64.00;;;;;;4975781;28;20426;-70
2023/06/22 02:16:14;;;;;;;5.07;4.60;;;22.50;64.30;;;;;;4974286;28;20436;-71
2023/06/22 02:18:46;;;;;;;5.17;4.70;;;22.40;64.50;;;;;;4975627;28;20492;-69
2023/06/22 02:21:12;;;;;;;5.10;4.47;;;22.40;64.80;;;;;;4975127;28;20456;-69
2023/06/22 02:23:38;;;;;;;5.43;4.40;;;22.40;65.10;;;;;;4976103;28;20474;-70
2023/06/22 02:26:03;;;;;;;6.57;4.53;;;22.40;65.20;;;;;;4975032;28;20627;-69
2023/06/22 02:28:30;;;;;;;4.77;4.37;;;22.40;65.40;;;;;;4975130;28;20188;-69
2023/06/22 02:30:56;;;;;;;4.83;4.30;;;22.40;65.50;;;;;;4975639;28;20579;-75
2023/06/22 02:33:21;;;;;;;6.00;5.40;;;22.40;65.70;;;;;;4976866;28;20480;-74
2023/06/22 02:35:48;;;;;;;5.20;4.70;;;22.40;66.00;;;;;;4975897;28;20212;-74
2023/06/22 02:38:15;;;;;;;6.23;5.30;;;22.30;66.10;;;;;;4977797;28;20180;-69
2023/06/22 02:40:40;;;;;;;4.50;4.10;;;22.40;66.10;;;;;;4979703;28;20455;-70
2023/06/22 02:43:06;;;;;;;5.33;4.77;;;22.40;66.20;;;;;;4980782;28;20466;-70
2023/06/22 02:45:32;;;;;;;5.47;4.93;;;22.30;66.30;;;;;;4979846;28;20576;-71
2023/06/22 02:47:58;;;;;;;4.70;4.30;;;22.30;66.50;;;;;;4978832;28;20204;-71
2023/06/22 02:50:23;;;;;;;5.30;4.80;;;22.30;66.50;;;;;;4979776;28;20435;-69
2023/06/22 02:52:50;;;;;;;4.80;4.40;;;22.30;66.60;;;;;;4978579;28;20271;-70
2023/06/22 02:55:15;;;;;;;4.40;4.00;;;22.30;66.80;;;;;;4975720;28;20951;-70
2023/06/22 02:57:47;;;;;;;5.23;4.73;;;22.20;67.00;;;;;;4978662;28;20445;-70
2023/06/22 03:00:17;;;;;;;5.10;4.70;;;22.20;67.20;;;;;;4978555;28;20848;-71
2023/06/22 03:02:45;;;;;;;4.70;4.30;;;22.20;67.50;;;;;;4978868;28;20452;-71
2023/06/22 03:05:13;;;;;;;5.20;4.80;;;22.20;67.70;;;;;;4978330;28;20419;-69
2023/06/22 03:07:40;;;;;;;5.10;4.60;;;22.10;67.80;;;;;;4978712;28;20475;-69
2023/06/22 03:10:11;;;;;;;5.40;4.90;;;22.10;68.10;;;;;;4978030;28;20463;-70
2023/06/22 03:12:38;;;;;;;4.90;4.20;;;22.10;68.70;;;;;;4978709;28;20404;-69
2023/06/22 03:15:06;;;;;;;4.03;3.73;;;22.00;68.90;;;;;;4978104;28;20874;-69
2023/06/22 03:17:31;;;;;;;5.03;4.57;;;22.00;69.30;;;;;;4980376;28;20423;-69
2023/06/22 03:19:57;;;;;;;3.70;3.40;;;22.00;69.70;;;;;;4979343;28;20440;-70
2023/06/22 03:22:23;;;;;;;4.50;4.07;;;22.00;69.80;;;;;;4979484;28;20213;-70
2023/06/22 03:24:48;;;;;;;3.70;3.40;;;22.10;70.00;;;;;;4978321;28;20181;-69
2023/06/22 03:27:14;;;;;;;3.67;3.30;;;22.00;69.80;;;;;;4978258;28;20183;-69
2023/06/22 03:29:40;;;;;;;4.27;3.87;;;22.10;69.90;;;;;;4976347;28;20459;-70
2023/06/22 03:32:06;;;;;;;3.50;3.20;;;22.10;69.70;;;;;;4977966;28;20231;-69
2023/06/22 03:34:38;;;;;;;3.30;2.93;;;22.10;69.70;;;;;;4994440;28;20302;-70
2023/06/22 03:37:04;;;;;;;3.67;2.93;;;22.10;69.70;;;;;;4977873;28;20471;-69
2023/06/22 03:39:30;;;;;;;4.30;3.90;;;22.10;69.80;;;;;;4978013;28;20452;-69
2023/06/22 03:41:57;;;;;;;4.30;3.90;;;22.20;70.20;;;;;;4977522;28;20459;-71
2023/06/22 03:44:23;;;;;;;3.20;3.00;;;22.20;70.50;;;;;;4977784;28;20450;-70
2023/06/22 03:46:49;;;;;;;4.60;4.20;;;22.20;70.90;;;;;;4978779;28;20542;-69
2023/06/22 03:49:15;;;;;;;5.13;4.73;;;22.20;71.40;;;;;;4977796;28;20212;-71
2023/06/22 03:51:41;;;;;;;5.53;4.83;;;22.20;72.20;;;;;;4977605;28;20410;-69
2023/06/22 03:54:06;;;;;;;6.43;5.77;;;22.20;72.50;;;;;;4979979;28;20180;-73
2023/06/22 03:56:32;;;;;;;5.97;5.43;;;22.20;73.70;;;;;;4981515;28;20212;-71
2023/06/22 03:58:57;;;;;;;5.70;5.17;;;22.30;73.90;;;;;;4981048;28;20208;-69
2023/06/22 04:01:23;;;;;;;6.70;6.13;;;22.30;74.40;;;;;;4979933;28;20490;-71
2023/06/22 04:03:49;;;;;;;4.80;4.40;;;22.30;74.80;;;;;;4978822;28;20827;-70
2023/06/22 04:06:15;;;;;;;4.37;3.97;;;22.30;74.70;;;;;;4978547;28;20344;-69
2023/06/22 04:08:40;;;;;;;7.00;6.30;;;22.30;74.90;;;;;;4979020;28;20416;-71
2023/06/22 04:11:06;;;;;;;6.43;5.83;;;22.30;75.60;;;;;;4978567;28;20264;-70
2023/06/22 04:13:32;;;;;;;6.03;5.50;;;22.40;75.90;;;;;;4978668;28;20173;-70
2023/06/22 04:15:58;;;;;;;5.63;5.07;;;22.40;76.10;;;;;;4977695;28;20487;-68
2023/06/22 04:18:23;;;;;;;6.00;5.50;;;22.40;76.20;;;;;;4979230;28;20279;-71
2023/06/22 04:20:49;;;;;;;7.50;6.40;;;22.40;76.60;;;;;;4978473;28;20590;-71
2023/06/22 04:23:14;;;;;;;11.17;7.63;;;22.50;77.30;;;;;;4979132;28;20223;-72
2023/06/22 04:25:40;;;;;;;7.40;6.70;;;22.60;77.60;;;;;;4978797;28;20260;-70
2023/06/22 04:28:12;;;;;;;9.30;8.30;;;22.60;77.90;;;;;;4978297;28;20259;-70
2023/06/22 04:30:45;;;;;;;7.00;6.27;;;22.60;79.20;;;;;;4976232;28;20632;-71
2023/06/22 04:33:14;;;;;;;7.83;7.13;;;22.60;78.60;;;;;;4978208;28;20420;-70
2023/06/22 04:35:41;;;;;;;8.27;7.03;;;22.60;79.60;;;;;;4986628;28;20467;-70
2023/06/22 04:38:07;;;;;;;8.47;7.67;;;22.50;80.90;;;;;;4986735;28;20856;-69
2023/06/22 04:40:33;;;;;;;8.43;7.70;;;22.50;82.20;;;;;;4978154;28;20598;-69
2023/06/22 04:43:02;;;;;;;8.63;7.90;;;22.40;83.00;;;;;;4998375;28;20567;-70
2023/06/22 04:45:28;;;;;;;10.73;7.37;;;22.40;83.60;;;;;;4972746;28;20220;-72
2023/06/22 04:47:54;;;;;;;7.97;7.27;;;22.40;84.60;;;;;;4989838;28;20823;-70
2023/06/22 04:50:21;;;;;;;7.50;6.80;;;22.40;85.60;;;;;;4977409;28;20436;-71
2023/06/22 04:52:47;;;;;;;8.30;7.50;;;22.40;86.50;;;;;;4985934;28;20200;-71
2023/06/22 04:55:18;;;;;;;7.10;6.57;;;22.40;87.70;;;;;;4992083;28;20423;-70
2023/06/22 04:57:49;;;;;;;6.40;5.90;;;22.40;88.40;;;;;;4985349;28;20455;-70
2023/06/22 05:00:19;;;;;;;8.63;7.60;;;22.40;89.40;;;;;;4981312;28;20892;-70
2023/06/22 05:02:46;;;;;;;8.40;7.60;;;22.30;90.20;;;;;;4974265;28;20491;-70
2023/06/22 05:05:13;;;;;;;7.73;7.03;;;22.30;90.90;;;;;;4991338;28;20415;-71
2023/06/22 05:07:48;;;;;;;6.97;6.37;;;22.30;91.90;;;;;;4985644;28;20444;-70
2023/06/22 05:10:14;;;;;;;7.83;7.10;;;22.40;92.30;;;;;;4979410;28;20444;-70
2023/06/22 05:12:40;;;;;;;6.83;6.20;;;22.40;92.50;;;;;;4996528;28;20406;-72
2023/06/22 05:15:07;;;;;;;7.90;7.20;;;22.50;92.50;;;;;;4957084;28;20456;-71
2023/06/22 05:17:33;;;;;;;7.27;6.67;;;22.50;92.50;;;;;;4969462;28;20488;-69
2023/06/22 05:19:59;;;;;;;7.60;6.90;;;22.50;93.00;;;;;;4989529;28;20444;-70
2023/06/22 05:22:25;;;;;;;9.13;8.30;;;22.60;93.10;;;;;;4977274;28;20479;-72
2023/06/22 05:24:50;;;;;;;8.30;7.50;;;22.70;93.40;;;;;;4992623;28;20243;-72
2023/06/22 05:27:16;;;;;;;8.93;8.10;;;22.70;93.70;;;;;;4996621;28;20210;-70
2023/06/22 05:29:44;;;;;;;7.30;6.70;;;22.70;93.90;;;;;;4982028;28;20220;-71
2023/06/22 05:32:10;;;;;;;10.03;9.13;;;22.80;93.80;;;;;;4996037;28;20195;-71
2023/06/22 05:34:35;;;;;;;9.07;8.17;;;22.70;94.30;;;;;;4983707;28;20419;-71
2023/06/22 05:37:02;;;;;;;6.90;6.30;;;22.80;94.50;;;;;;4996465;28;20220;-71
2023/06/22 05:39:28;;;;;;;6.20;5.70;;;22.80;94.60;;;;;;4995382;28;20202;-71
2023/06/22 05:41:53;;;;;;;8.70;7.90;;;22.90;94.80;;;;;;4979110;28;20668;-71
2023/06/22 05:44:19;;;;;;;6.30;5.80;;;22.90;94.70;;;;;;4975631;28;20176;-73
2023/06/22 05:46:46;;;;;;;8.17;7.33;;;23.00;94.40;;;;;;4990170;28;20275;-72
2023/06/22 05:49:12;;;;;;;12.47;9.13;;;23.20;94.20;;;;;;4982236;28;20293;-70
2023/06/22 05:51:38;;;;;;;8.20;7.57;;;23.30;93.90;;;;;;4991206;28;20416;-73
2023/06/22 05:54:04;;;;;;;9.40;8.53;;;23.50;93.60;;;;;;4984133;28;20832;-73
2023/06/22 05:56:29;;;;;;;11.37;10.20;;;23.60;92.80;;;;;;4976609;28;20247;-70
2023/06/22 05:58:55;;;;;;;9.90;8.90;;;23.60;92.60;;;;;;4995293;28;20184;-71
2023/06/22 06:01:21;;;;;;;8.80;7.90;;;24.10;91.80;;;;;;4964754;28;20197;-76
2023/06/22 06:03:46;;;;;;;7.40;6.70;;;24.90;87.70;;;;;;4982028;28;20208;-71
2023/06/22 06:06:12;;;;;;;10.00;8.83;;;25.40;80.60;;;;;;4984902;28;20194;-70
2023/06/22 06:08:38;;;;;;;9.63;8.83;;;26.00;74.90;;;;;;4983922;28;20211;-71
2023/06/22 06:11:04;;;;;;;9.80;8.90;;;26.20;69.50;;;;;;5004705;28;20250;-72
2023/06/22 06:13:30;;;;;;;7.97;7.17;;;26.30;68.70;;;;;;4984224;28;20740;-72
2023/06/22 06:15:56;;;;;;;7.80;7.10;;;26.40;68.10;;;;;;4969440;28;20201;-72
2023/06/22 06:18:21;;;;;;;10.27;9.27;;;26.60;67.00;;;;;;4969068;28;20204;-72
2023/06/22 06:20:48;;;;;;;8.80;8.00;;;26.60;65.80;;;;;;5002554;28;20442;-74
2023/06/22 06:23:14;;;;;;;8.30;7.57;;;26.40;66.70;;;;;;4986676;28;20223;-73
2023/06/22 06:25:40;;;;;;;9.03;8.23;;;26.20;67.90;;;;;;4985681;28;20438;-74
2023/06/22 06:28:05;;;;;;;9.00;8.10;;;26.10;68.90;;;;;;4984561;28;20219;-75
2023/06/22 06:30:31;;;;;;;7.37;6.77;;;26.10;69.50;;;;;;4990385;28;20223;-73
2023/06/22 06:32:57;;;;;;;9.10;8.30;;;26.20;69.60;;;;;;4996667;28;20527;-75
2023/06/22 06:35:23;;;;;;;9.47;8.57;;;26.30;69.50;;;;;;4968536;28;20222;-73
2023/06/22 06:37:50;;;;;;;7.70;7.10;;;26.60;68.60;;;;;;4981815;28;20200;-73
2023/06/22 06:40:18;;;;;;;9.40;8.60;;;27.30;65.90;;;;;;4983236;28;20208;-75
2023/06/22 06:42:48;;;;;;;9.63;8.63;;;27.60;62.50;;;;;;4983274;28;20455;-74
2023/06/22 06:45:19;;;;;;;9.50;8.67;;;27.90;61.20;;;;;;4983600;28;20444;-73
2023/06/22 06:47:45;;;;;;;8.03;7.33;;;28.10;59.90;;;;;;4981460;28;20427;-74
2023/06/22 06:50:11;;;;;;;7.67;7.07;;;28.10;59.30;;;;;;4962791;28;20722;-75
2023/06/22 06:52:37;;;;;;;8.67;7.80;;;28.00;59.30;;;;;;4981321;28;20463;-72
2023/06/22 06:55:04;;;;;;;8.97;8.17;;;27.90;59.20;;;;;;4982115;28;20443;-72
2023/06/22 06:57:30;;;;;;;8.60;7.90;;;27.80;59.40;;;;;;4982037;28;20191;-76
2023/06/22 06:59:56;;;;;;;8.00;7.30;;;27.70;59.60;;;;;;4977423;28;20531;-71
2023/06/22 07:02:22;;;;;;;9.87;8.97;;;27.60;59.80;;;;;;4966958;28;20455;-73
2023/06/22 07:04:48;;;;;;;8.70;7.90;;;27.50;59.50;;;;;;4982955;28;20796;-73
2023/06/22 07:07:14;;;;;;;7.77;7.17;;;27.30;60.50;;;;;;4982536;28;20418;-75
2023/06/22 07:09:40;;;;;;;11.60;9.37;;;27.20;61.00;;;;;;4996821;28;20231;-71
2023/06/22 07:12:06;;;;;;;8.80;7.90;;;27.20;61.30;;;;;;4982725;28;20308;-71
2023/06/22 07:14:32;;;;;;;8.03;7.00;;;27.30;62.00;;;;;;4982879;28;20272;-73
2023/06/22 07:16:58;;;;;;;8.00;7.30;;;27.70;60.60;;;;;;4981942;28;20452;-74
2023/06/22 07:19:27;;;;;;;8.00;7.20;;;28.20;58.90;;;;;;4982515;28;20204;-74
2023/06/22 07:21:56;;;;;;;7.03;6.43;;;28.60;57.70;;;;;;4981042;28;20412;-73
2023/06/22 07:24:22;;;;;;;7.60;6.87;;;29.10;56.20;;;;;;4984670;28;20427;-74
2023/06/22 07:26:49;;;;;;;7.40;6.80;;;29.30;55.30;;;;;;4989320;28;20495;-75
2023/06/22 07:29:17;;;;;;;7.97;7.30;;;29.40;54.80;;;;;;4989676;28;20468;-76
2023/06/22 07:31:42;;;;;;;9.20;8.30;;;29.50;54.60;;;;;;4970310;28;20451;-73
2023/06/22 07:34:08;;;;;;;9.50;8.70;;;29.60;54.20;;;;;;4984953;28;20420;-75
2023/06/22 07:36:35;;;;;;;9.87;8.80;;;29.70;54.10;;;;;;4986197;28;20220;-72
2023/06/22 07:39:04;;;;;;;7.93;7.23;;;29.60;53.90;;;;;;4986222;28;20200;-75
2023/06/22 07:41:30;;;;;;;7.73;7.13;;;29.30;54.10;;;;;;4985774;28;20435;-73
2023/06/22 07:43:56;;;;;;;8.70;8.00;;;29.00;54.30;;;;;;4989429;28;20455;-77
2023/06/22 07:46:22;;;;;;;9.33;8.50;;;28.80;54.60;;;;;;5003600;28;20442;-73
2023/06/22 07:48:47;;;;;;;8.53;7.73;;;28.40;55.10;;;;;;4989728;28;20244;-72
2023/06/22 07:51:14;;;;;;;6.53;6.03;;;28.20;55.90;;;;;;4986051;28;20432;-75
2023/06/22 07:53:40;;;;;;;8.17;7.47;;;28.20;55.90;;;;;;4972910;28;20196;-74
2023/06/22 07:56:09;;;;;;;8.67;7.80;;;28.30;55.80;;;;;;4972914;28;20436;-77
2023/06/22 07:58:34;;;;;;;9.60;8.70;;;28.30;56.00;;;;;;4989822;28;20411;-74
2023/06/22 08:01:00;;;;;;;9.83;8.67;;;28.10;56.20;;;;;;4987576;28;20775;-74
2023/06/22 08:03:25;;;;;;;9.60;8.60;;;27.80;56.80;;;;;;4988903;28;20219;-73
2023/06/22 08:05:51;;;;;;;10.93;9.00;;;27.70;57.40;;;;;;4990363;28;20243;-77
2023/06/22 08:08:17;;;;;;;10.17;9.33;;;27.60;57.70;;;;;;4989343;28;20512;-75
2023/06/22 08:10:42;;;;;;;8.90;8.10;;;27.50;58.20;;;;;;4987530;28;20287;-75
2023/06/22 08:13:08;;;;;;;9.30;8.47;;;27.40;59.00;;;;;;4989241;28;20199;-72
2023/06/22 08:15:34;;;;;;;12.17;11.03;;;27.40;59.00;;;;;;4985695;28;20185;-78
2023/06/22 08:18:00;;;;;;;11.60;9.70;;;27.50;59.10;;;;;;4967881;28;20203;-73
2023/06/22 08:20:26;;;;;;;9.70;8.80;;;27.50;59.00;;;;;;4985076;28;20208;-74
2023/06/22 08:22:53;;;;;;;10.10;9.20;;;27.50;59.10;;;;;;4986181;28;20764;-73
2023/06/22 08:25:19;;;;;;;9.97;8.97;;;27.40;59.30;;;;;;4986815;28;20223;-73
2023/06/22 08:27:49;;;;;;;9.27;8.47;;;27.40;59.40;;;;;;4984907;28;20412;-76
2023/06/22 08:30:15;;;;;;;11.67;9.40;;;27.40;59.70;;;;;;4966334;29;20656;-74
2023/06/22 08:32:41;;;;;;;9.10;8.30;;;27.50;60.70;;;;;;4973697;28;20751;-75
2023/06/22 08:35:08;;;;;;;9.00;8.20;;;27.60;59.40;;;;;;4990064;28;20466;-74
2023/06/22 08:37:35;;;;;;;9.70;8.90;;;27.60;59.00;;;;;;5005253;28;20179;-77
2023/06/22 08:40:07;;;;;;;8.90;8.03;;;27.70;59.10;;;;;;5006321;28;20430;-74
2023/06/22 08:42:33;;;;;;;8.03;7.33;;;27.80;59.10;;;;;;5004369;28;20462;-72
2023/06/22 08:44:59;;;;;;;8.43;7.73;;;27.80;58.60;;;;;;4999125;28;20732;-76
2023/06/22 08:47:24;;;;;;;8.70;7.90;;;27.90;58.20;;;;;;4987568;28;20638;-75
2023/06/22 08:49:50;;;;;;;9.27;8.37;;;28.00;58.30;;;;;;4995904;28;20254;-75
2023/06/22 08:52:17;;;;;;;10.63;8.20;;;28.10;58.20;;;;;;4990794;28;20191;-74
2023/06/22 08:54:42;;;;;;;8.60;7.87;;;28.40;57.40;;;;;;4996765;28;20192;-73
2023/06/22 08:57:08;;;;;;;8.70;7.90;;;28.70;57.20;;;;;;4966326;28;20513;-77
2023/06/22 08:59:33;;;;;;;9.70;8.70;;;29.00;56.30;;;;;;4995706;28;20239;-76
2023/06/22 09:01:59;;;;;;;10.20;9.10;;;29.10;56.10;;;;;;4987916;28;20231;-72
2023/06/22 09:04:25;;;;;;;17.53;9.67;;;29.10;55.80;;;;;;4985911;28;20279;-75
2023/06/22 09:06:52;;;;;;;8.13;7.50;;;29.00;55.90;;;;;;4988891;28;20184;-76
2023/06/22 09:09:18;;;;;;;8.60;7.80;;;29.00;56.40;;;;;;4982375;28;20339;-74
2023/06/22 09:11:43;;;;;;;8.90;7.97;;;29.00;55.90;;;;;;4992591;28;20800;-74
2023/06/22 09:14:09;;;;;;;9.03;8.20;;;29.00;56.20;;;;;;5002640;28;20430;-76
2023/06/22 09:16:35;;;;;;;8.67;7.90;;;29.00;55.80;;;;;;4984291;28;20259;-75
2023/06/22 09:19:01;;;;;;;8.40;7.60;;;29.00;56.00;;;;;;4989230;28;20478;-75
2023/06/22 09:21:27;;;;;;;8.57;7.87;;;29.10;55.40;;;;;;4973624;28;20276;-70
2023/06/22 09:23:53;;;;;;;9.63;8.73;;;29.20;55.20;;;;;;4987068;28;20210;-76
2023/06/22 09:26:19;;;;;;;8.73;7.93;;;29.20;54.90;;;;;;4985141;28;20198;-74
2023/06/22 09:28:44;;;;;;;8.50;7.60;;;29.20;54.70;;;;;;5005540;28;20299;-75
2023/06/22 09:31:10;;;;;;;8.63;7.80;;;29.20;54.90;;;;;;4969962;28;20448;-72
2023/06/22 09:33:41;;;;;;;8.63;7.93;;;29.20;54.40;;;;;;4985829;28;20264;-77
2023/06/22 09:36:09;;;;;;;9.17;8.37;;;29.30;54.70;;;;;;4996333;28;20522;-76
2023/06/22 09:38:38;;;;;;;9.43;7.53;;;29.40;54.90;;;;;;4985064;28;20424;-74
2023/06/22 09:41:04;;;;;;;10.33;7.53;;;29.70;54.00;;;;;;4986056;28;20788;-77
2023/06/22 09:43:31;;;;;;;7.67;6.93;;;29.90;53.20;;;;;;4986548;28;20739;-75
2023/06/22 09:45:57;;;;;;;8.47;7.77;;;30.20;53.00;;;;;;4985451;28;20775;-75
2023/06/22 09:48:23;;;;;;;8.00;7.30;;;30.50;51.20;;;;;;4987740;28;20416;-74
2023/06/22 09:50:48;;;;;;;8.30;7.60;;;30.40;51.60;;;;;;4988116;28;20271;-76
2023/06/22 09:53:14;;;;;;;8.03;7.33;;;30.50;51.40;;;;;;4988014;28;20196;-77
2023/06/22 09:55:40;;;;;;;8.33;7.63;;;30.60;51.70;;;;;;4987279;28;20188;-75
2023/06/22 09:58:05;;;;;;;8.60;7.80;;;30.80;51.10;;;;;;4986515;28;20187;-74
2023/06/22 10:00:31;;;;;;;8.73;7.97;;;31.10;50.60;;;;;;4986636;28;20220;-72
2023/06/22 10:02:58;;;;;;;7.60;7.00;;;31.20;50.60;;;;;;4988526;28;20205;-75
2023/06/22 10:05:24;;;;;;;8.03;7.37;;;31.20;50.00;;;;;;4986636;28;20180;-76
2023/06/22 10:07:50;;;;;;;9.80;8.27;;;31.00;50.00;;;;;;5001976;28;20398;-75
2023/06/22 10:10:16;;;;;;;9.63;8.67;;;30.60;50.10;;;;;;4986542;28;20495;-74
2023/06/22 10:12:46;;;;;;;8.57;7.97;;;29.90;51.60;;;;;;4983894;28;20525;-75
2023/06/22 10:15:13;;;;;;;7.90;7.20;;;29.40;52.70;;;;;;4985301;28;20431;-75
2023/06/22 10:17:39;;;;;;;19.03;10.90;;;28.90;54.10;;;;;;4986424;28;20450;-75
2023/06/22 10:20:11;;;;;;;10.03;9.10;;;28.50;55.50;;;;;;4987640;28;20435;-73
2023/06/22 10:22:42;;;;;;;8.50;7.80;;;28.10;56.50;;;;;;4985408;28;20228;-74
2023/06/22 10:25:08;;;;;;;8.20;7.50;;;27.90;57.20;;;;;;4984808;28;20476;-75
2023/06/22 10:27:34;;;;;;;8.73;8.03;;;27.80;57.70;;;;;;4987823;28;20419;-75
2023/06/22 10:30:00;;;;;;;8.50;7.70;;;27.70;58.20;;;;;;4983468;28;20469;-74
2023/06/22 10:32:27;;;;;;;9.50;8.70;;;27.40;59.20;;;;;;4983463;28;20420;-74
2023/06/22 10:34:53;;;;;;;7.07;6.50;;;27.10;61.20;;;;;;4985808;28;20199;-75
2023/06/22 10:37:19;;;;;;;10.53;9.63;;;26.80;65.30;;;;;;5004444;28;20423;-75
2023/06/22 10:39:44;;;;;;;8.67;7.87;;;26.60;74.80;;;;;;4968800;28;20228;-74
2023/06/22 10:42:12;;;;;;;9.27;8.47;;;26.10;84.90;;;;;;4982898;28;20188;-75
2023/06/22 10:44:38;;;;;;;11.53;10.53;;;25.70;95.10;;;;;;4957974;28;20184;-75
2023/06/22 10:47:04;;;;;;;9.67;8.87;;;25.30;99.90;;;;;;4951399;28;20444;-73
2023/06/22 10:49:30;;;;;;;11.70;10.50;;;24.90;99.90;;;;;;5004340;28;20743;-76
2023/06/22 10:51:56;;;;;;;10.70;9.70;;;24.50;99.90;;;;;;5007111;28;20414;-73
2023/06/22 10:54:21;;;;;;;10.73;9.73;;;24.20;99.90;;;;;;4999018;28;20279;-75
2023/06/22 10:56:47;;;;;;;9.93;9.03;;;23.90;99.90;;;;;;4984206;28;20196;-74
2023/06/22 10:59:12;;;;;;;11.43;10.23;;;23.60;99.90;;;;;;4986699;28;20220;-77
2023/06/22 11:01:38;;;;;;;12.47;11.30;;;23.30;99.90;;;;;;4971095;28;20259;-74
2023/06/22 11:04:04;;;;;;;16.83;15.33;;;23.00;99.90;;;;;;4954283;28;20225;-76
2023/06/22 11:06:30;;;;;;;16.50;15.00;;;22.80;99.90;;;;;;4973635;28;20184;-75
2023/06/22 11:08:55;;;;;;;15.43;14.13;;;22.50;99.90;;;;;;4955401;28;20465;-74
2023/06/22 11:11:21;;;;;;;15.53;14.10;;;22.40;99.90;;;;;;4991208;28;20267;-76
2023/06/22 11:13:46;;;;;;;14.13;12.90;;;22.30;99.90;;;;;;4984616;28;20278;-75
2023/06/22 11:16:12;;;;;;;13.93;12.73;;;22.20;99.90;;;;;;4973478;28;20229;-74
2023/06/22 11:18:38;;;;;;;13.90;12.60;;;22.10;99.90;;;;;;4969385;28;20313;-77
2023/06/22 11:21:03;;;;;;;11.50;10.60;;;22.10;99.90;;;;;;5000410;28;20183;-75
2023/06/22 11:23:29;;;;;;;12.47;11.37;;;22.10;99.90;;;;;;5009987;28;20183;-76
2023/06/22 11:25:55;;;;;;;13.73;12.47;;;22.10;99.90;;;;;;4997084;28;20271;-73
2023/06/22 11:28:20;;;;;;;14.03;12.77;;;22.10;99.90;;;;;;4973010;28;20188;-72
2023/06/22 11:30:46;;;;;;;12.03;10.97;;;22.20;99.90;;;;;;4997767;28;20219;-76
2023/06/22 11:33:12;;;;;;;10.80;9.90;;;22.20;99.90;;;;;;4994236;28;20422;-77
2023/06/22 11:35:38;;;;;;;12.57;11.47;;;22.30;99.90;;;;;;5008610;28;20652;-76
2023/06/22 11:38:04;;;;;;;10.87;9.97;;;22.40;99.90;;;;;;4993291;28;20172;-73
2023/06/22 11:40:30;;;;;;;12.37;11.07;;;22.50;99.90;;;;;;5010454;28;20212;-77
2023/06/22 11:42:57;;;;;;;14.97;13.27;;;22.60;99.90;;;;;;5009107;28;20450;-74
2023/06/22 11:45:22;;;;;;;17.63;15.90;;;22.40;99.90;;;;;;4991219;28;20451;-77
2023/06/22 11:47:48;;;;;;;19.17;17.43;;;22.20;99.90;;;;;;4956688;29;20472;-76
2023/06/22 11:50:14;;;;;;;19.83;17.80;;;22.10;99.90;;;;;;4971592;29;20208;-76
2023/06/22 11:52:39;;;;;;;20.13;18.10;;;22.00;99.90;;;;;;4984758;28;20564;-74
2023/06/22 11:55:06;;;;;;;20.43;18.30;;;21.90;99.90;;;;;;4975126;28;20298;-77
2023/06/22 11:57:51;;;;;;;20.07;18.37;;;22.10;99.90;;;;;;5008101;28;20172;-77
2023/06/22 12:00:17;;;;;;;19.17;16.97;;;22.20;99.90;;;;;;4991581;28;20456;-75
2023/06/22 12:02:44;;;;;;;20.10;17.93;;;22.30;99.90;;;;;;4936175;29;20553;-76
2023/06/22 12:05:10;;;;;;;19.70;17.80;;;22.30;99.90;;;;;;4984815;28;20407;-76
2023/06/22 12:07:37;;;;;;;20.10;18.23;;;22.30;99.90;;;;;;5010093;28;20672;-76
2023/06/22 12:10:03;;;;;;;19.20;17.40;;;22.50;99.90;;;;;;4964682;28;20231;-74
2023/06/22 12:12:29;;;;;;;23.10;20.70;;;22.80;99.90;;;;;;4991857;28;20449;-77
2023/06/22 12:14:55;;;;;;;24.57;22.23;;;22.90;99.90;;;;;;4982799;28;20408;-76
2023/06/22 12:17:20;;;;;;;21.60;19.70;;;22.80;99.90;;;;;;4998062;28;20196;-75
2023/06/22 12:19:46;;;;;;;26.03;23.47;;;22.80;99.90;;;;;;5014892;28;20215;-72
2023/06/22 12:22:12;;;;;;;23.43;20.90;;;22.90;99.90;;;;;;5014666;28;20263;-74
2023/06/22 12:24:37;;;;;;;23.43;21.13;;;22.90;99.90;;;;;;4982396;28;20211;-75
2023/06/22 12:27:03;;;;;;;23.57;21.00;;;22.90;99.90;;;;;;4976285;28;20176;-75
2023/06/22 12:29:29;;;;;;;23.70;21.20;;;22.70;99.90;;;;;;4990523;28;20209;-75
2023/06/22 12:31:54;;;;;;;20.57;18.40;;;22.60;99.90;;;;;;4986569;28;20416;-76
2023/06/22 12:34:20;;;;;;;20.47;17.97;;;22.60;99.90;;;;;;4971133;28;20216;-74
2023/06/22 12:36:48;;;;;;;20.70;18.57;;;22.70;99.90;;;;;;5008807;28;20215;-74
2023/06/22 12:39:13;;;;;;;20.67;18.67;;;22.90;99.90;;;;;;4986059;28;20219;-74
2023/06/22 12:41:39;;;;;;;19.47;17.07;;;23.00;99.90;;;;;;4993900;28;20431;-74